createdAt,value
2023-05-14T00:00:49.485Z,100725.16
2023-05-14T00:03:16.982Z,100716.56
2023-05-14T00:05:44.368Z,100715.13
2023-05-14T00:08:11.663Z,100713.41
2023-05-14T00:10:38.964Z,100708.03
2023-05-14T00:13:06.203Z,100718.66
2023-05-14T00:15:34.565Z,100724.22
2023-05-14T00:18:02.046Z,100726.56
2023-05-14T00:20:29.340Z,100716.84
2023-05-14T00:22:56.655Z,100716.41
2023-05-14T00:25:23.965Z,100711.38
2023-05-14T00:27:51.260Z,100717.19
2023-05-14T00:30:18.601Z,100691.66
2023-05-14T00:32:45.997Z,100708.66
2023-05-14T00:35:13.335Z,100704.06
2023-05-14T00:37:40.579Z,100717.81
2023-05-14T00:40:08.744Z,100700.72
2023-05-14T00:42:36.066Z,100696.91
2023-05-14T00:45:03.464Z,100703.09
2023-05-14T00:47:30.799Z,100712.56
2023-05-14T00:49:58.096Z,100706.22
2023-05-14T00:52:25.427Z,100694.78
2023-05-14T00:54:52.721Z,100689.59
2023-05-14T00:57:20.024Z,100666.88
2023-05-14T00:59:47.311Z,100693.56
2023-05-14T01:02:14.594Z,100699.19
2023-05-14T01:04:41.860Z,100698.66
2023-05-14T01:07:27.730Z,100700.72
2023-05-14T01:10:04.182Z,100696.47
2023-05-14T01:12:43.953Z,100703.91
2023-05-14T01:15:12.762Z,100709.75
2023-05-14T01:17:46.298Z,100711.53
2023-05-14T01:20:13.590Z,100715.47
2023-05-14T01:22:40.859Z,100710.41
2023-05-14T01:25:08.655Z,100708.19
2023-05-14T01:27:40.439Z,100691.69
2023-05-14T01:30:15.186Z,100701.47
2023-05-14T01:32:42.459Z,100710.63
2023-05-14T01:35:09.850Z,100703.16
2023-05-14T01:37:37.176Z,100695.59
2023-05-14T01:40:05.738Z,100707.31
2023-05-14T01:42:32.976Z,100707.72
2023-05-14T01:45:00.262Z,100688.94
2023-05-14T01:47:27.541Z,100697.06
2023-05-14T01:49:55.089Z,100698.94
2023-05-14T01:52:22.407Z,100691.19
2023-05-14T01:54:50.036Z,100692.66
2023-05-14T01:57:17.312Z,100692.91
2023-05-14T01:59:44.587Z,100685.59
2023-05-14T02:02:11.922Z,100694.00
2023-05-14T02:04:39.239Z,100683.38
2023-05-14T02:07:06.493Z,100693.03
2023-05-14T02:09:33.811Z,100689.91
2023-05-14T02:12:01.324Z,100678.50
2023-05-14T02:14:28.565Z,100674.53
2023-05-14T02:16:56.336Z,100666.78
2023-05-14T02:19:24.352Z,100668.91
2023-05-14T02:21:51.678Z,100664.81
2023-05-14T02:24:19.007Z,100663.94
2023-05-14T02:26:46.254Z,100654.31
2023-05-14T02:29:16.504Z,100647.34
2023-05-14T02:31:43.861Z,100654.91
2023-05-14T02:34:11.177Z,100654.91
2023-05-14T02:36:38.438Z,100639.22
2023-05-14T02:39:05.764Z,100646.78
2023-05-14T02:41:33.161Z,100625.69
2023-05-14T02:44:00.489Z,100639.00
2023-05-14T02:46:27.829Z,100638.94
2023-05-14T02:48:55.683Z,100636.25
2023-05-14T02:51:23.057Z,100644.91
2023-05-14T02:53:50.468Z,100640.59
2023-05-14T02:56:17.699Z,100636.84
2023-05-14T02:58:44.963Z,100629.38
2023-05-14T03:01:12.446Z,100628.53
2023-05-14T03:03:40.205Z,100616.41
2023-05-14T03:06:08.154Z,100628.78
2023-05-14T03:08:35.427Z,100628.19
2023-05-14T03:11:02.944Z,100623.66
2023-05-14T03:13:30.216Z,100641.38
2023-05-14T03:15:57.515Z,100635.88
2023-05-14T03:18:24.899Z,100643.69
2023-05-14T03:20:52.328Z,100638.69
2023-05-14T03:23:19.614Z,100626.78
2023-05-14T03:25:46.994Z,100639.47
2023-05-14T03:28:14.275Z,100639.31
2023-05-14T03:30:41.642Z,100645.75
2023-05-14T03:33:10.343Z,100638.44
2023-05-14T03:35:37.653Z,100633.06
2023-05-14T03:38:04.898Z,100644.72
2023-05-14T03:40:34.861Z,100642.59
2023-05-14T03:43:02.141Z,100643.72
2023-05-14T03:45:30.475Z,100635.88
2023-05-14T03:47:59.461Z,100646.63
2023-05-14T03:50:27.262Z,100643.75
2023-05-14T03:52:55.091Z,100633.94
2023-05-14T03:55:22.491Z,100640.38
2023-05-14T03:57:49.806Z,100630.13
2023-05-14T04:00:17.408Z,100638.59
2023-05-14T04:02:44.758Z,100647.34
2023-05-14T04:05:12.126Z,100642.03
2023-05-14T04:07:39.375Z,100645.22
2023-05-14T04:10:07.202Z,100650.22
2023-05-14T04:12:36.303Z,100650.56
2023-05-14T04:15:04.918Z,100653.63
2023-05-14T04:17:33.487Z,100658.44
2023-05-14T04:20:02.145Z,100658.81
2023-05-14T04:22:29.412Z,100649.47
2023-05-14T04:24:56.664Z,100627.91
2023-05-14T04:27:23.934Z,100649.94
2023-05-14T04:29:51.209Z,100644.47
2023-05-14T04:32:18.527Z,100641.97
2023-05-14T04:34:46.922Z,100632.13
2023-05-14T04:37:14.255Z,100634.19
2023-05-14T04:39:41.519Z,100641.19
2023-05-14T04:42:08.759Z,100617.28
2023-05-14T04:44:36.742Z,100632.34
2023-05-14T04:47:04.509Z,100627.22
2023-05-14T04:49:31.963Z,100634.81
2023-05-14T04:51:59.466Z,100624.00
2023-05-14T04:54:26.856Z,100634.09
2023-05-14T04:56:55.919Z,100633.41
2023-05-14T04:59:23.254Z,100631.00
2023-05-14T05:01:51.708Z,100639.19
2023-05-14T05:04:19.073Z,100643.47
2023-05-14T05:06:46.374Z,100631.72
2023-05-14T05:09:14.182Z,100622.84
2023-05-14T05:11:41.473Z,100624.44
2023-05-14T05:14:08.771Z,100620.03
2023-05-14T05:16:36.187Z,100620.69
2023-05-14T05:19:03.529Z,100601.56
2023-05-14T05:21:30.839Z,100597.56
2023-05-14T05:23:58.089Z,100602.81
2023-05-14T05:26:26.855Z,100589.09
2023-05-14T05:28:54.255Z,100607.75
2023-05-14T05:31:21.576Z,100592.88
2023-05-14T05:33:48.861Z,100600.13
2023-05-14T05:36:16.136Z,100599.31
2023-05-14T05:38:43.486Z,100592.19
2023-05-14T05:41:10.754Z,100604.72
2023-05-14T05:43:37.992Z,100602.25
2023-05-14T05:46:05.525Z,100605.50
2023-05-14T05:48:32.816Z,100604.50
2023-05-14T05:51:00.147Z,100589.13
2023-05-14T05:53:27.384Z,100586.81
2023-05-14T05:55:54.643Z,100581.22
2023-05-14T05:58:21.948Z,100586.78
2023-05-14T06:00:49.243Z,100575.47
2023-05-14T06:03:16.629Z,100579.03
2023-05-14T06:05:43.968Z,100580.13
2023-05-14T06:08:11.296Z,100578.13
2023-05-14T06:10:38.657Z,100568.78
2023-05-14T06:13:06.892Z,100577.84
2023-05-14T06:15:34.259Z,100568.75
2023-05-14T06:18:01.561Z,100575.06
2023-05-14T06:20:28.962Z,100567.28
2023-05-14T06:22:56.348Z,100565.34
2023-05-14T06:25:23.710Z,100572.41
2023-05-14T06:27:50.994Z,100578.09
2023-05-14T06:30:18.276Z,100573.44
2023-05-14T06:32:45.707Z,100573.63
2023-05-14T06:35:13.001Z,100578.88
2023-05-14T06:37:41.405Z,100576.16
2023-05-14T06:40:09.036Z,100567.13
2023-05-14T06:42:36.352Z,100574.22
2023-05-14T06:45:06.045Z,100571.06
2023-05-14T06:47:33.517Z,100566.13
2023-05-14T06:50:01.979Z,100563.91
2023-05-14T06:52:29.302Z,100564.41
2023-05-14T06:54:56.530Z,100553.88
2023-05-14T06:57:23.864Z,100547.69
2023-05-14T06:59:51.106Z,100553.31
2023-05-14T07:02:18.344Z,100554.09
2023-05-14T07:04:46.653Z,100545.31
2023-05-14T07:07:15.557Z,100552.59
2023-05-14T07:09:42.825Z,100555.50
2023-05-14T07:12:10.099Z,100550.16
2023-05-14T07:14:37.694Z,100544.41
2023-05-14T07:17:04.977Z,100542.66
2023-05-14T07:19:32.323Z,100543.25
2023-05-14T07:21:59.665Z,100538.06
2023-05-14T07:24:27.017Z,100541.50
2023-05-14T07:26:55.288Z,100537.06
2023-05-14T07:29:22.673Z,100547.97
2023-05-14T07:31:49.991Z,100538.03
2023-05-14T07:34:17.359Z,100545.22
2023-05-14T07:36:44.637Z,100546.28
2023-05-14T07:39:11.910Z,100553.75
2023-05-14T07:41:39.252Z,100541.31
2023-05-14T07:44:06.528Z,100541.75
2023-05-14T07:46:33.760Z,100545.00
2023-05-14T07:49:01.026Z,100537.56
2023-05-14T07:51:28.550Z,100533.03
2023-05-14T07:53:55.902Z,100522.03
2023-05-14T07:56:23.219Z,100525.50
2023-05-14T07:58:51.137Z,100515.22
2023-05-14T08:01:18.419Z,100516.16
2023-05-14T08:03:45.893Z,100512.34
2023-05-14T08:06:13.292Z,100503.38
2023-05-14T08:08:40.932Z,100509.59
2023-05-14T08:11:08.267Z,100496.84
2023-05-14T08:13:35.543Z,100504.47
2023-05-14T08:16:02.830Z,100497.25
2023-05-14T08:18:30.134Z,100492.59
2023-05-14T08:20:57.894Z,100492.00
2023-05-14T08:23:25.381Z,100497.44
2023-05-14T08:25:52.592Z,100485.84
2023-05-14T08:28:20.058Z,100488.81
2023-05-14T08:30:47.638Z,100490.63
2023-05-14T08:33:14.997Z,100482.13
2023-05-14T08:35:42.303Z,100468.66
2023-05-14T08:38:09.570Z,100473.28
2023-05-14T08:40:36.828Z,100480.78
2023-05-14T08:43:04.086Z,100459.69
2023-05-14T08:45:34.471Z,100469.22
2023-05-14T08:48:02.120Z,100464.41
2023-05-14T08:50:30.587Z,100472.66
2023-05-14T08:52:58.213Z,100462.88
2023-05-14T08:55:26.223Z,100468.44
2023-05-14T08:57:53.787Z,100458.56
2023-05-14T09:00:21.263Z,100459.09
2023-05-14T09:02:48.629Z,100456.41
2023-05-14T09:05:15.971Z,100441.56
2023-05-14T09:07:43.205Z,100443.06
2023-05-14T09:10:10.498Z,100442.97
2023-05-14T09:12:37.776Z,100442.19
2023-05-14T09:15:06.505Z,100429.28
2023-05-14T09:17:33.880Z,100440.28
2023-05-14T09:20:01.171Z,100426.56
2023-05-14T09:22:29.237Z,100423.91
2023-05-14T09:25:07.178Z,100421.59
2023-05-14T09:27:34.470Z,100416.88
2023-05-14T09:30:19.816Z,100409.44
2023-05-14T09:32:49.165Z,100403.97
2023-05-14T09:35:21.008Z,100406.31
2023-05-14T09:37:52.491Z,100407.09
2023-05-14T09:40:24.418Z,100397.31
2023-05-14T09:42:52.285Z,100392.25
2023-05-14T09:45:19.594Z,100382.88
2023-05-14T09:47:46.969Z,100385.97
2023-05-14T09:50:14.343Z,100387.91
2023-05-14T09:52:42.088Z,100383.22
2023-05-14T09:55:09.622Z,100374.63
2023-05-14T09:57:37.275Z,100383.25
2023-05-14T10:00:05.066Z,100378.41
2023-05-14T10:02:41.158Z,100377.41
2023-05-14T10:05:09.531Z,100368.78
2023-05-14T10:07:42.734Z,100354.91
2023-05-14T10:10:13.703Z,100362.38
2023-05-14T10:12:40.991Z,100357.88
2023-05-14T10:15:18.310Z,100357.97
2023-05-14T10:18:03.212Z,100343.84
2023-05-14T10:20:30.499Z,100349.28
2023-05-14T10:22:58.478Z,100360.19
2023-05-14T10:25:25.777Z,100343.03
2023-05-14T10:27:53.288Z,100325.88
2023-05-14T10:30:21.846Z,100336.31
2023-05-14T10:32:49.208Z,100323.25
2023-05-14T10:35:22.241Z,100321.03
2023-05-14T10:37:51.240Z,100321.03
2023-05-14T10:40:19.417Z,100329.69
2023-05-14T10:42:46.971Z,100318.38
2023-05-14T10:45:14.902Z,100307.78
2023-05-14T10:47:43.411Z,100296.84
2023-05-14T10:50:11.509Z,100302.22
2023-05-14T10:52:40.823Z,100296.69
2023-05-14T10:55:08.396Z,100287.34
2023-05-14T10:57:37.814Z,100275.66
2023-05-14T11:00:07.816Z,100280.31
2023-05-14T11:02:38.347Z,100268.19
2023-05-14T11:05:08.585Z,100257.72
2023-05-14T11:07:37.984Z,100262.09
2023-05-14T11:10:06.751Z,100247.53
2023-05-14T11:12:34.790Z,100255.31
2023-05-14T11:15:04.352Z,100250.63
2023-05-14T11:17:31.796Z,100237.00
2023-05-14T11:19:59.240Z,100245.94
2023-05-14T11:22:26.682Z,100248.72
2023-05-14T11:24:53.997Z,100232.97
2023-05-14T11:27:21.655Z,100246.78
2023-05-14T11:29:48.958Z,100220.06
2023-05-14T11:32:16.711Z,100221.94
2023-05-14T11:34:47.074Z,100224.69
2023-05-14T11:37:15.323Z,100227.72
2023-05-14T11:39:53.461Z,100235.66
2023-05-14T11:42:21.452Z,100225.59
2023-05-14T11:44:50.004Z,100229.59
2023-05-14T11:47:18.408Z,100220.59
2023-05-14T11:49:45.780Z,100213.13
2023-05-14T11:52:16.330Z,100196.69
2023-05-14T11:54:44.336Z,100206.34
2023-05-14T11:57:13.575Z,100184.97
2023-05-14T11:59:41.141Z,100184.06
2023-05-14T12:02:18.085Z,100191.03
2023-05-14T12:04:45.824Z,100192.56
2023-05-14T12:07:15.040Z,100199.72
2023-05-14T12:09:49.754Z,100194.22
2023-05-14T12:12:23.240Z,100195.00
2023-05-14T12:14:50.695Z,100187.94
2023-05-14T12:17:19.576Z,100191.50
2023-05-14T12:19:48.617Z,100168.13
2023-05-14T12:22:18.421Z,100185.72
2023-05-14T12:24:55.394Z,100175.56
2023-05-14T12:27:24.552Z,100165.72
2023-05-14T12:30:20.060Z,100156.69
2023-05-14T12:32:52.740Z,100163.41
2023-05-14T12:35:21.547Z,100160.63
2023-05-14T12:37:49.007Z,100158.41
2023-05-14T12:40:16.308Z,100158.34
2023-05-14T12:42:43.591Z,100155.25
2023-05-14T12:45:11.447Z,100155.34
2023-05-14T12:47:38.895Z,100143.66
2023-05-14T12:50:06.993Z,100151.78
2023-05-14T12:52:38.850Z,100143.56
2023-05-14T12:55:08.956Z,100140.34
2023-05-14T12:57:37.157Z,100132.69
2023-05-14T13:00:08.505Z,100135.78
2023-05-14T13:02:42.752Z,100140.94
2023-05-14T13:05:11.778Z,100115.56
2023-05-14T13:07:39.265Z,100143.34
2023-05-14T13:10:07.138Z,100130.44
2023-05-14T13:12:34.538Z,100139.84
2023-05-14T13:15:01.948Z,100138.34
2023-05-14T13:17:29.316Z,100138.38
2023-05-14T13:19:56.624Z,100128.25
2023-05-14T13:22:23.897Z,100136.06
2023-05-14T13:24:51.123Z,100127.44
2023-05-14T13:27:18.392Z,100126.69
2023-05-14T13:29:45.670Z,100116.91
2023-05-14T13:32:12.957Z,100118.47
2023-05-14T13:34:40.267Z,100111.09
2023-05-14T13:37:07.585Z,100106.44
2023-05-14T13:39:34.955Z,100116.56
2023-05-14T13:42:02.349Z,100105.25
2023-05-14T13:44:29.605Z,100100.16
2023-05-14T13:46:56.936Z,100105.22
2023-05-14T13:49:24.202Z,100109.16
2023-05-14T13:51:51.493Z,100093.13
2023-05-14T13:54:18.722Z,100097.81
2023-05-14T13:56:46.031Z,100088.06
2023-05-14T13:59:13.302Z,100088.81
2023-05-14T14:01:40.563Z,100079.47
2023-05-14T14:04:07.828Z,100072.03
2023-05-14T14:06:35.069Z,100091.19
2023-05-14T14:09:02.342Z,100093.94
2023-05-14T14:11:29.639Z,100080.25
2023-05-14T14:13:56.898Z,100083.78
2023-05-14T14:16:24.218Z,100081.84
2023-05-14T14:18:51.512Z,100052.56
2023-05-14T14:21:20.803Z,100070.91
2023-05-14T14:23:48.253Z,100068.16
2023-05-14T14:26:15.822Z,100066.97
2023-05-14T14:28:43.248Z,100074.41
2023-05-14T14:31:11.090Z,100078.22
2023-05-14T14:33:38.500Z,100070.44
2023-05-14T14:36:06.244Z,100057.94
2023-05-14T14:38:33.531Z,100071.56
2023-05-14T14:41:03.224Z,100072.75
2023-05-14T14:43:30.661Z,100064.94
2023-05-14T14:45:58.100Z,100085.19
2023-05-14T14:48:34.044Z,100084.66
2023-05-14T14:51:01.636Z,100079.13
2023-05-14T14:53:28.968Z,100077.16
2023-05-14T14:55:56.450Z,100081.81
2023-05-14T14:58:23.904Z,100084.84
2023-05-14T15:00:52.081Z,100081.69
2023-05-14T15:03:19.599Z,100073.81
2023-05-14T15:05:47.215Z,100081.63
2023-05-14T15:08:14.681Z,100081.56
2023-05-14T15:10:41.998Z,100078.34
2023-05-14T15:13:09.272Z,100085.25
2023-05-14T15:15:37.452Z,100086.69
2023-05-14T15:18:04.974Z,100087.44
2023-05-14T15:20:32.322Z,100088.41
2023-05-14T15:22:59.585Z,100082.53
2023-05-14T15:25:27.081Z,100080.88
2023-05-14T15:27:54.459Z,100090.19
2023-05-14T15:30:21.842Z,100085.78
2023-05-14T15:32:49.155Z,100072.84
2023-05-14T15:35:16.657Z,100083.38
2023-05-14T15:37:44.665Z,100091.94
2023-05-14T15:40:12.582Z,100097.72
2023-05-14T15:42:42.537Z,100092.13
2023-05-14T15:45:10.985Z,100088.91
2023-05-14T15:47:38.359Z,100079.91
2023-05-14T15:50:06.465Z,100081.78
2023-05-14T15:52:34.170Z,100066.19
2023-05-14T15:55:01.463Z,100068.16
2023-05-14T15:57:28.811Z,100075.22
2023-05-14T15:59:56.927Z,100072.50
2023-05-14T16:02:24.313Z,100060.75
2023-05-14T16:04:51.687Z,100053.75
2023-05-14T16:07:19.057Z,100045.22
2023-05-14T16:09:46.368Z,100046.78
2023-05-14T16:12:14.418Z,100035.88
2023-05-14T16:14:42.162Z,100045.94
2023-05-14T16:17:09.489Z,100045.16
2023-05-14T16:19:39.583Z,100052.72
2023-05-14T16:22:06.905Z,100052.28
2023-05-14T16:24:34.230Z,100058.97
2023-05-14T16:27:01.603Z,100037.56
2023-05-14T16:29:28.872Z,100062.56
2023-05-14T16:31:56.300Z,100055.84
2023-05-14T16:34:23.583Z,100052.88
2023-05-14T16:36:51.021Z,100064.00
2023-05-14T16:39:18.373Z,100044.91
2023-05-14T16:41:45.631Z,100046.09
2023-05-14T16:44:12.934Z,100033.56
2023-05-14T16:46:40.345Z,100028.78
2023-05-14T16:49:07.653Z,100019.88
2023-05-14T16:51:35.042Z,100021.97
2023-05-14T16:54:02.340Z,100017.56
2023-05-14T16:56:30.389Z,100019.16
2023-05-14T16:58:57.860Z,100018.00
2023-05-14T17:01:25.629Z,100006.25
2023-05-14T17:03:52.932Z,100004.22
2023-05-14T17:06:20.354Z,99999.63
2023-05-14T17:08:47.687Z,99997.19
2023-05-14T17:11:15.054Z,99991.66
2023-05-14T17:13:42.384Z,100000.28
2023-05-14T17:16:09.684Z,100008.75
2023-05-14T17:18:38.080Z,100007.53
2023-05-14T17:21:07.542Z,100003.44
2023-05-14T17:23:34.978Z,100008.34
2023-05-14T17:26:02.525Z,100007.63
2023-05-14T17:28:30.138Z,100004.41
2023-05-14T17:30:57.503Z,100009.84
2023-05-14T17:33:24.887Z,100008.22
2023-05-14T17:35:52.223Z,100006.41
2023-05-14T17:38:19.624Z,100010.63
2023-05-14T17:40:46.911Z,100003.66
2023-05-14T17:43:14.331Z,99997.44
2023-05-14T17:45:53.030Z,100005.22
2023-05-14T17:48:24.198Z,99998.50
2023-05-14T17:50:54.543Z,99999.78
2023-05-14T17:53:21.883Z,100003.56
2023-05-14T17:55:50.160Z,100000.63
2023-05-14T17:58:17.513Z,100004.91
2023-05-14T18:00:44.897Z,99984.94
2023-05-14T18:03:14.162Z,99987.97
2023-05-14T18:05:41.621Z,99978.25
2023-05-14T18:08:09.637Z,99985.25
2023-05-14T18:10:36.916Z,99980.84
2023-05-14T18:13:04.227Z,99975.41
2023-05-14T18:15:31.673Z,99975.00
2023-05-14T18:17:59.132Z,99979.19
2023-05-14T18:20:26.525Z,99979.91
2023-05-14T18:22:53.860Z,99974.84
2023-05-14T18:25:21.136Z,99971.25
2023-05-14T18:27:48.467Z,99977.22
2023-05-14T18:30:16.008Z,99971.31
2023-05-14T18:32:45.762Z,99964.63
2023-05-14T18:35:13.287Z,99959.56
2023-05-14T18:37:41.091Z,99964.81
2023-05-14T18:40:08.957Z,99969.09
2023-05-14T18:42:36.227Z,99964.75
2023-05-14T18:45:04.242Z,99963.91
2023-05-14T18:47:32.250Z,99957.22
2023-05-14T18:50:01.920Z,99953.34
2023-05-14T18:52:29.554Z,99954.81
2023-05-14T18:54:56.962Z,99965.06
2023-05-14T18:57:24.233Z,99964.34
2023-05-14T18:59:51.477Z,99971.25
2023-05-14T19:02:18.844Z,99968.06
2023-05-14T19:07:16.820Z,99970.47
2023-05-14T19:09:44.154Z,99962.75
2023-05-14T19:12:11.506Z,99964.03
2023-05-14T19:14:38.794Z,99959.41
2023-05-14T19:17:06.093Z,99962.91
2023-05-14T19:19:33.362Z,99958.19
2023-05-14T19:22:00.646Z,99954.25
2023-05-14T19:24:27.942Z,99949.50
2023-05-14T19:26:55.648Z,99948.78
2023-05-14T19:29:22.908Z,99941.38
2023-05-14T19:31:50.295Z,99928.38
2023-05-14T19:34:17.602Z,99933.94
2023-05-14T19:36:44.953Z,99934.06
2023-05-14T19:39:13.278Z,99926.38
2023-05-14T19:41:40.744Z,99923.94
2023-05-14T19:44:08.017Z,99921.53
2023-05-14T19:46:35.402Z,99918.59
2023-05-14T19:49:02.678Z,99914.66
2023-05-14T19:51:29.997Z,99902.97
2023-05-14T19:53:57.306Z,99899.53
2023-05-14T19:56:26.424Z,99897.53
2023-05-14T19:58:54.650Z,99896.81
2023-05-14T20:01:22.102Z,99898.75
2023-05-14T20:03:49.504Z,99904.09
2023-05-14T20:06:17.597Z,99909.19
2023-05-14T20:08:47.818Z,99896.97
2023-05-14T20:11:15.833Z,99902.53
2023-05-14T20:13:43.239Z,99891.34
2023-05-14T20:16:10.625Z,99892.22
2023-05-14T20:18:37.935Z,99893.97
2023-05-14T20:21:05.583Z,99886.56
2023-05-14T20:23:33.698Z,99885.75
2023-05-14T20:26:04.131Z,99877.34
2023-05-14T20:28:31.451Z,99865.28
2023-05-14T20:30:59.067Z,99866.84
2023-05-14T20:33:27.096Z,99869.50
2023-05-14T20:35:54.415Z,99846.50
2023-05-14T20:38:21.993Z,99860.53
2023-05-14T20:40:49.342Z,99856.19
2023-05-14T20:43:16.717Z,99858.63
2023-05-14T20:45:43.996Z,99858.72
2023-05-14T20:48:15.059Z,99840.75
2023-05-14T20:50:42.962Z,99847.66
2023-05-14T20:53:10.401Z,99843.31
2023-05-14T20:55:37.709Z,99840.22
2023-05-14T20:58:05.052Z,99832.13
2023-05-14T21:00:32.387Z,99829.06
2023-05-14T21:03:00.455Z,99826.72
2023-05-14T21:05:28.066Z,99807.16
2023-05-14T21:07:55.419Z,99815.13
2023-05-14T21:10:22.963Z,99815.16
2023-05-14T21:12:50.255Z,99810.09
2023-05-14T21:15:17.535Z,99819.00
2023-05-14T21:17:45.017Z,99794.06
2023-05-14T21:20:13.608Z,99801.22
2023-05-14T21:22:40.920Z,99804.25
2023-05-14T21:25:08.664Z,99801.56
2023-05-14T21:27:35.954Z,99794.63
2023-05-14T21:30:03.316Z,99798.53
2023-05-14T21:32:30.702Z,99794.63
2023-05-14T21:34:58.116Z,99800.28
2023-05-14T21:37:25.354Z,99780.78
2023-05-14T21:39:52.646Z,99799.44
2023-05-14T21:42:21.120Z,99790.91
2023-05-14T21:44:48.447Z,99788.59
2023-05-14T21:47:16.184Z,99761.63
2023-05-14T21:49:43.720Z,99779.63
2023-05-14T21:52:11.305Z,99784.66
2023-05-14T21:54:38.622Z,99780.34
2023-05-14T21:57:06.466Z,99773.81
2023-05-14T21:59:33.992Z,99779.25
2023-05-14T22:04:31.509Z,99764.78
2023-05-14T22:06:58.789Z,99754.22
2023-05-14T22:09:26.440Z,99752.97
2023-05-14T22:11:53.730Z,99756.06
2023-05-14T22:14:20.993Z,99761.63
2023-05-14T22:16:48.470Z,99745.75
2023-05-14T22:19:16.661Z,99753.16
2023-05-14T22:21:44.014Z,99728.59
2023-05-14T22:24:11.258Z,99746.53
2023-05-14T22:26:38.511Z,99748.16
2023-05-14T22:29:05.782Z,99750.44
2023-05-14T22:31:33.181Z,99749.63
2023-05-14T22:34:00.493Z,99753.63
2023-05-14T22:36:27.904Z,99753.13
2023-05-14T22:38:55.256Z,99748.78
2023-05-14T22:41:22.548Z,99748.06
2023-05-14T22:43:50.923Z,99741.78
2023-05-14T22:46:18.421Z,99729.69
2023-05-14T22:48:46.135Z,99727.41
2023-05-14T22:51:13.424Z,99728.22
2023-05-14T22:53:40.683Z,99724.31
2023-05-14T22:56:08.035Z,99728.94
2023-05-14T22:58:35.656Z,99719.53
2023-05-14T23:01:03.356Z,99732.78
2023-05-14T23:03:30.846Z,99734.38
2023-05-14T23:05:58.220Z,99721.97
2023-05-14T23:08:25.663Z,99723.53
2023-05-14T23:10:53.068Z,99726.56
2023-05-14T23:13:20.506Z,99733.59
2023-05-14T23:15:48.851Z,99721.50
2023-05-14T23:18:16.273Z,99723.53
2023-05-14T23:20:43.885Z,99721.19
2023-05-14T23:23:11.354Z,99719.59
2023-05-14T23:25:38.692Z,99719.69
2023-05-14T23:28:06.337Z,99735.22
2023-05-14T23:30:33.643Z,99722.81
2023-05-14T23:33:01.048Z,99713.84
2023-05-14T23:35:28.393Z,99710.59
2023-05-14T23:37:55.689Z,99712.28
2023-05-14T23:40:22.999Z,99710.41
2023-05-14T23:42:50.699Z,99703.00
2023-05-14T23:45:18.037Z,99713.38
2023-05-14T23:47:45.457Z,99704.78
2023-05-14T23:50:12.750Z,99710.13
2023-05-14T23:52:40.317Z,99698.63
2023-05-14T23:55:07.891Z,99700.84
2023-05-14T23:57:35.497Z,99705.41
